sensor_id;sensor_type;location;lat;lon;timestamp;P1;durP1;ratioP1;P2;durP2;ratioP2
78931;SDS011;68331;53.362;55.932;2024-02-16T00:01:20;2.17;;;1.67;;
78931;SDS011;68331;53.362;55.932;2024-02-16T00:03:46;2.05;;;1.85;;
78931;SDS011;68331;53.362;55.932;2024-02-16T00:06:12;2.80;;;2.63;;
78931;SDS011;68331;53.362;55.932;2024-02-16T00:08:38;1.20;;;1.20;;
78931;SDS011;68331;53.362;55.932;2024-02-16T00:11:05;1.80;;;1.73;;
78931;SDS011;68331;53.362;55.932;2024-02-16T00:13:31;3.00;;;2.80;;
78931;SDS011;68331;53.362;55.932;2024-02-16T00:15:58;2.58;;;2.38;;
78931;SDS011;68331;53.362;55.932;2024-02-16T00:18:23;2.15;;;2.05;;
78931;SDS011;68331;53.362;55.932;2024-02-16T00:20:50;1.92;;;1.90;;
78931;SDS011;68331;53.362;55.932;2024-02-16T00:23:16;5.22;;;2.42;;
78931;SDS011;68331;53.362;55.932;2024-02-16T00:25:44;2.95;;;2.75;;
78931;SDS011;68331;53.362;55.932;2024-02-16T00:28:11;1.48;;;1.48;;
78931;SDS011;68331;53.362;55.932;2024-02-16T00:30:37;1.50;;;1.50;;
78931;SDS011;68331;53.362;55.932;2024-02-16T00:33:04;2.42;;;2.33;;
78931;SDS011;68331;53.362;55.932;2024-02-16T00:35:30;2.05;;;1.95;;
78931;SDS011;68331;53.362;55.932;2024-02-16T00:37:59;1.50;;;1.50;;
78931;SDS011;68331;53.362;55.932;2024-02-16T00:40:26;1.90;;;1.80;;
78931;SDS011;68331;53.362;55.932;2024-02-16T00:42:52;2.92;;;2.72;;
78931;SDS011;68331;53.362;55.932;2024-02-16T00:45:18;2.30;;;2.20;;
78931;SDS011;68331;53.362;55.932;2024-02-16T00:47:44;1.60;;;1.60;;
78931;SDS011;68331;53.362;55.932;2024-02-16T00:50:14;2.17;;;2.08;;
78931;SDS011;68331;53.362;55.932;2024-02-16T00:52:40;5.47;;;3.65;;
78931;SDS011;68331;53.362;55.932;2024-02-16T00:55:07;6.50;;;4.30;;
78931;SDS011;68331;53.362;55.932;2024-02-16T00:57:33;1.80;;;1.70;;
78931;SDS011;68331;53.362;55.932;2024-02-16T00:59:59;2.30;;;2.20;;
78931;SDS011;68331;53.362;55.932;2024-02-16T01:02:25;3.42;;;3.22;;
78931;SDS011;68331;53.362;55.932;2024-02-16T01:04:51;3.55;;;2.92;;
78931;SDS011;68331;53.362;55.932;2024-02-16T01:07:18;2.67;;;2.58;;
78931;SDS011;68331;53.362;55.932;2024-02-16T01:09:44;2.13;;;2.03;;
78931;SDS011;68331;53.362;55.932;2024-02-16T01:12:09;3.25;;;3.10;;
78931;SDS011;68331;53.362;55.932;2024-02-16T01:14:35;4.38;;;3.25;;
78931;SDS011;68331;53.362;55.932;2024-02-16T01:17:01;4.25;;;3.92;;
78931;SDS011;68331;53.362;55.932;2024-02-16T01:19:27;2.30;;;2.20;;
78931;SDS011;68331;53.362;55.932;2024-02-16T01:21:53;2.67;;;2.47;;
78931;SDS011;68331;53.362;55.932;2024-02-16T01:24:23;1.77;;;1.67;;
78931;SDS011;68331;53.362;55.932;2024-02-16T01:26:49;3.85;;;3.53;;
78931;SDS011;68331;53.362;55.932;2024-02-16T01:29:15;3.05;;;2.83;;
78931;SDS011;68331;53.362;55.932;2024-02-16T01:31:41;3.25;;;3.00;;
78931;SDS011;68331;53.362;55.932;2024-02-16T01:34:07;2.78;;;2.58;;
78931;SDS011;68331;53.362;55.932;2024-02-16T01:36:33;3.55;;;3.25;;
78931;SDS011;68331;53.362;55.932;2024-02-16T01:38:59;8.80;;;3.78;;
78931;SDS011;68331;53.362;55.932;2024-02-16T01:41:25;3.03;;;2.70;;
78931;SDS011;68331;53.362;55.932;2024-02-16T01:43:53;3.83;;;2.70;;
78931;SDS011;68331;53.362;55.932;2024-02-16T01:46:20;2.15;;;2.05;;
78931;SDS011;68331;53.362;55.932;2024-02-16T01:48:48;2.92;;;2.83;;
78931;SDS011;68331;53.362;55.932;2024-02-16T01:51:15;2.15;;;1.80;;
78931;SDS011;68331;53.362;55.932;2024-02-16T01:53:41;1.23;;;1.23;;
78931;SDS011;68331;53.362;55.932;2024-02-16T01:56:07;2.28;;;2.13;;
78931;SDS011;68331;53.362;55.932;2024-02-16T01:58:33;3.88;;;3.60;;
78931;SDS011;68331;53.362;55.932;2024-02-16T02:01:00;4.90;;;2.33;;
78931;SDS011;68331;53.362;55.932;2024-02-16T02:03:26;2.42;;;1.63;;
78931;SDS011;68331;53.362;55.932;2024-02-16T02:05:52;3.08;;;2.25;;
78931;SDS011;68331;53.362;55.932;2024-02-16T02:08:19;2.13;;;2.03;;
78931;SDS011;68331;53.362;55.932;2024-02-16T02:10:45;1.33;;;1.33;;
78931;SDS011;68331;53.362;55.932;2024-02-16T02:13:11;10.35;;;2.80;;
78931;SDS011;68331;53.362;55.932;2024-02-16T02:15:37;1.88;;;1.77;;
78931;SDS011;68331;53.362;55.932;2024-02-16T02:18:03;2.50;;;2.30;;
78931;SDS011;68331;53.362;55.932;2024-02-16T02:20:29;2.40;;;2.28;;
78931;SDS011;68331;53.362;55.932;2024-02-16T02:22:55;3.78;;;2.85;;
78931;SDS011;68331;53.362;55.932;2024-02-16T02:25:21;1.60;;;1.50;;
78931;SDS011;68331;53.362;55.932;2024-02-16T02:27:47;3.40;;;3.15;;
78931;SDS011;68331;53.362;55.932;2024-02-16T02:30:12;15.55;;;2.78;;
78931;SDS011;68331;53.362;55.932;2024-02-16T02:32:38;5.38;;;2.28;;
78931;SDS011;68331;53.362;55.932;2024-02-16T02:35:05;1.23;;;1.17;;
78931;SDS011;68331;53.362;55.932;2024-02-16T02:37:31;2.75;;;2.47;;
78931;SDS011;68331;53.362;55.932;2024-02-16T02:39:57;2.17;;;1.98;;
78931;SDS011;68331;53.362;55.932;2024-02-16T02:42:23;3.03;;;2.83;;
78931;SDS011;68331;53.362;55.932;2024-02-16T02:44:49;5.60;;;1.80;;
78931;SDS011;68331;53.362;55.932;2024-02-16T02:47:15;3.45;;;2.88;;
78931;SDS011;68331;53.362;55.932;2024-02-16T02:49:44;2.50;;;2.30;;
78931;SDS011;68331;53.362;55.932;2024-02-16T02:52:10;3.40;;;3.17;;
78931;SDS011;68331;53.362;55.932;2024-02-16T02:54:36;3.03;;;2.83;;
78931;SDS011;68331;53.362;55.932;2024-02-16T02:57:02;2.42;;;2.28;;
78931;SDS011;68331;53.362;55.932;2024-02-16T02:59:28;1.60;;;1.52;;
78931;SDS011;68331;53.362;55.932;2024-02-16T03:01:54;4.40;;;4.00;;
78931;SDS011;68331;53.362;55.932;2024-02-16T03:04:20;2.60;;;2.50;;
78931;SDS011;68331;53.362;55.932;2024-02-16T03:06:46;2.05;;;1.95;;
78931;SDS011;68331;53.362;55.932;2024-02-16T03:09:13;3.30;;;3.10;;
78931;SDS011;68331;53.362;55.932;2024-02-16T03:11:39;2.40;;;2.08;;
78931;SDS011;68331;53.362;55.932;2024-02-16T03:14:05;2.35;;;2.25;;
78931;SDS011;68331;53.362;55.932;2024-02-16T03:16:31;4.32;;;2.80;;
78931;SDS011;68331;53.362;55.932;2024-02-16T03:18:58;3.85;;;3.35;;
78931;SDS011;68331;53.362;55.932;2024-02-16T03:21:23;3.22;;;3.03;;
78931;SDS011;68331;53.362;55.932;2024-02-16T03:23:49;2.55;;;2.35;;
78931;SDS011;68331;53.362;55.932;2024-02-16T03:26:16;2.65;;;2.45;;
78931;SDS011;68331;53.362;55.932;2024-02-16T03:28:45;2.28;;;2.17;;
78931;SDS011;68331;53.362;55.932;2024-02-16T03:31:18;1.33;;;1.30;;
78931;SDS011;68331;53.362;55.932;2024-02-16T03:33:54;1.95;;;1.95;;
78931;SDS011;68331;53.362;55.932;2024-02-16T03:36:20;2.85;;;2.67;;
78931;SDS011;68331;53.362;55.932;2024-02-16T03:38:46;3.38;;;2.30;;
78931;SDS011;68331;53.362;55.932;2024-02-16T03:41:18;2.90;;;2.70;;
78931;SDS011;68331;53.362;55.932;2024-02-16T03:43:45;1.83;;;1.77;;
78931;SDS011;68331;53.362;55.932;2024-02-16T03:46:11;3.60;;;3.40;;
78931;SDS011;68331;53.362;55.932;2024-02-16T03:48:38;3.28;;;2.97;;
78931;SDS011;68331;53.362;55.932;2024-02-16T03:51:05;1.90;;;1.80;;
78931;SDS011;68331;53.362;55.932;2024-02-16T03:53:31;1.42;;;1.42;;
78931;SDS011;68331;53.362;55.932;2024-02-16T03:55:57;4.05;;;3.70;;
78931;SDS011;68331;53.362;55.932;2024-02-16T03:58:24;2.65;;;2.45;;
78931;SDS011;68331;53.362;55.932;2024-02-16T04:00:50;2.10;;;2.00;;
78931;SDS011;68331;53.362;55.932;2024-02-16T04:03:16;2.65;;;2.45;;
78931;SDS011;68331;53.362;55.932;2024-02-16T04:05:42;3.83;;;3.42;;
78931;SDS011;68331;53.362;55.932;2024-02-16T04:08:08;3.47;;;2.08;;
78931;SDS011;68331;53.362;55.932;2024-02-16T04:10:34;2.97;;;2.10;;
78931;SDS011;68331;53.362;55.932;2024-02-16T04:13:01;2.95;;;2.85;;
78931;SDS011;68331;53.362;55.932;2024-02-16T04:15:27;2.50;;;2.40;;
78931;SDS011;68331;53.362;55.932;2024-02-16T04:17:53;2.88;;;2.67;;
78931;SDS011;68331;53.362;55.932;2024-02-16T04:20:19;2.33;;;2.22;;
78931;SDS011;68331;53.362;55.932;2024-02-16T04:22:45;31.73;;;5.57;;
78931;SDS011;68331;53.362;55.932;2024-02-16T04:25:11;7.10;;;4.18;;
78931;SDS011;68331;53.362;55.932;2024-02-16T04:27:37;3.75;;;2.47;;
78931;SDS011;68331;53.362;55.932;2024-02-16T04:30:03;4.20;;;3.70;;
78931;SDS011;68331;53.362;55.932;2024-02-16T04:32:30;2.33;;;2.22;;
78931;SDS011;68331;53.362;55.932;2024-02-16T04:34:56;5.20;;;3.90;;
78931;SDS011;68331;53.362;55.932;2024-02-16T04:37:22;3.83;;;2.10;;
78931;SDS011;68331;53.362;55.932;2024-02-16T04:39:49;9.75;;;4.32;;
78931;SDS011;68331;53.362;55.932;2024-02-16T04:42:15;3.03;;;2.92;;
78931;SDS011;68331;53.362;55.932;2024-02-16T04:44:41;4.38;;;4.07;;
78931;SDS011;68331;53.362;55.932;2024-02-16T04:47:07;8.35;;;6.53;;
78931;SDS011;68331;53.362;55.932;2024-02-16T04:49:33;7.72;;;6.80;;
78931;SDS011;68331;53.362;55.932;2024-02-16T04:51:59;5.55;;;5.15;;
78931;SDS011;68331;53.362;55.932;2024-02-16T04:54:25;6.07;;;5.20;;
78931;SDS011;68331;53.362;55.932;2024-02-16T04:56:51;2.78;;;2.60;;
78931;SDS011;68331;53.362;55.932;2024-02-16T04:59:17;7.90;;;4.82;;
78931;SDS011;68331;53.362;55.932;2024-02-16T05:01:43;5.68;;;3.35;;
78931;SDS011;68331;53.362;55.932;2024-02-16T05:04:12;5.05;;;4.68;;
78931;SDS011;68331;53.362;55.932;2024-02-16T05:06:45;4.55;;;4.28;;
78931;SDS011;68331;53.362;55.932;2024-02-16T05:09:11;7.70;;;7.03;;
78931;SDS011;68331;53.362;55.932;2024-02-16T05:11:39;9.63;;;6.07;;
78931;SDS011;68331;53.362;55.932;2024-02-16T05:14:05;7.22;;;6.50;;
78931;SDS011;68331;53.362;55.932;2024-02-16T05:16:31;7.72;;;6.45;;
78931;SDS011;68331;53.362;55.932;2024-02-16T05:18:57;12.57;;;7.28;;
78931;SDS011;68331;53.362;55.932;2024-02-16T05:21:23;13.18;;;7.90;;
78931;SDS011;68331;53.362;55.932;2024-02-16T05:23:49;10.95;;;8.27;;
78931;SDS011;68331;53.362;55.932;2024-02-16T05:26:15;11.45;;;7.20;;
78931;SDS011;68331;53.362;55.932;2024-02-16T05:28:41;17.30;;;7.38;;
78931;SDS011;68331;53.362;55.932;2024-02-16T05:31:14;8.23;;;5.68;;
78931;SDS011;68331;53.362;55.932;2024-02-16T05:33:43;13.85;;;7.32;;
78931;SDS011;68331;53.362;55.932;2024-02-16T05:36:10;9.13;;;8.20;;
78931;SDS011;68331;53.362;55.932;2024-02-16T05:38:37;8.65;;;7.28;;
78931;SDS011;68331;53.362;55.932;2024-02-16T05:41:07;8.80;;;7.28;;
78931;SDS011;68331;53.362;55.932;2024-02-16T05:43:33;12.38;;;8.80;;
78931;SDS011;68331;53.362;55.932;2024-02-16T05:45:59;11.98;;;8.35;;
78931;SDS011;68331;53.362;55.932;2024-02-16T05:48:26;9.70;;;7.97;;
78931;SDS011;68331;53.362;55.932;2024-02-16T05:50:57;15.75;;;8.57;;
78931;SDS011;68331;53.362;55.932;2024-02-16T05:53:26;18.67;;;9.38;;
78931;SDS011;68331;53.362;55.932;2024-02-16T05:55:55;25.13;;;12.30;;
78931;SDS011;68331;53.362;55.932;2024-02-16T05:58:21;29.05;;;12.95;;
78931;SDS011;68331;53.362;55.932;2024-02-16T06:00:48;28.67;;;14.45;;
78931;SDS011;68331;53.362;55.932;2024-02-16T06:03:14;34.88;;;18.65;;
78931;SDS011;68331;53.362;55.932;2024-02-16T06:05:40;33.70;;;17.95;;
78931;SDS011;68331;53.362;55.932;2024-02-16T06:08:06;39.00;;;19.02;;
78931;SDS011;68331;53.362;55.932;2024-02-16T06:10:32;39.10;;;20.40;;
78931;SDS011;68331;53.362;55.932;2024-02-16T06:12:58;55.35;;;22.70;;
78931;SDS011;68331;53.362;55.932;2024-02-16T06:15:25;42.70;;;20.27;;
78931;SDS011;68331;53.362;55.932;2024-02-16T06:17:51;53.92;;;22.08;;
78931;SDS011;68331;53.362;55.932;2024-02-16T06:20:18;41.17;;;22.95;;
78931;SDS011;68331;53.362;55.932;2024-02-16T06:22:44;44.00;;;22.40;;
78931;SDS011;68331;53.362;55.932;2024-02-16T06:25:09;50.35;;;22.38;;
78931;SDS011;68331;53.362;55.932;2024-02-16T06:27:35;48.08;;;22.83;;
78931;SDS011;68331;53.362;55.932;2024-02-16T06:30:02;46.67;;;22.80;;
78931;SDS011;68331;53.362;55.932;2024-02-16T06:32:29;48.10;;;21.75;;
78931;SDS011;68331;53.362;55.932;2024-02-16T06:34:56;47.42;;;22.83;;
78931;SDS011;68331;53.362;55.932;2024-02-16T06:37:22;46.35;;;21.45;;
78931;SDS011;68331;53.362;55.932;2024-02-16T06:39:48;36.13;;;19.67;;
78931;SDS011;68331;53.362;55.932;2024-02-16T06:42:14;41.22;;;18.83;;
78931;SDS011;68331;53.362;55.932;2024-02-16T06:44:40;42.38;;;20.40;;
78931;SDS011;68331;53.362;55.932;2024-02-16T06:47:06;45.80;;;21.40;;
78931;SDS011;68331;53.362;55.932;2024-02-16T06:49:32;46.53;;;21.75;;
78931;SDS011;68331;53.362;55.932;2024-02-16T06:51:57;51.30;;;22.92;;
78931;SDS011;68331;53.362;55.932;2024-02-16T06:54:24;42.85;;;22.92;;
78931;SDS011;68331;53.362;55.932;2024-02-16T06:56:50;50.83;;;22.35;;
78931;SDS011;68331;53.362;55.932;2024-02-16T06:59:18;55.30;;;25.70;;
78931;SDS011;68331;53.362;55.932;2024-02-16T07:01:44;52.00;;;23.20;;
78931;SDS011;68331;53.362;55.932;2024-02-16T07:04:10;57.50;;;27.23;;
78931;SDS011;68331;53.362;55.932;2024-02-16T07:06:36;60.00;;;27.65;;
78931;SDS011;68331;53.362;55.932;2024-02-16T07:09:02;71.35;;;31.25;;
78931;SDS011;68331;53.362;55.932;2024-02-16T07:11:28;67.35;;;31.48;;
78931;SDS011;68331;53.362;55.932;2024-02-16T07:13:54;53.05;;;26.48;;
78931;SDS011;68331;53.362;55.932;2024-02-16T07:16:20;65.65;;;29.33;;
78931;SDS011;68331;53.362;55.932;2024-02-16T07:18:46;71.85;;;35.92;;
78931;SDS011;68331;53.362;55.932;2024-02-16T07:21:12;84.82;;;39.03;;
78931;SDS011;68331;53.362;55.932;2024-02-16T07:23:38;89.43;;;38.40;;
78931;SDS011;68331;53.362;55.932;2024-02-16T07:26:04;98.57;;;39.13;;
78931;SDS011;68331;53.362;55.932;2024-02-16T07:28:30;127.13;;;48.33;;
78931;SDS011;68331;53.362;55.932;2024-02-16T07:30:57;106.00;;;40.33;;
78931;SDS011;68331;53.362;55.932;2024-02-16T07:33:23;98.78;;;43.60;;
78931;SDS011;68331;53.362;55.932;2024-02-16T07:35:50;155.77;;;61.97;;
78931;SDS011;68331;53.362;55.932;2024-02-16T07:38:17;198.48;;;69.90;;
78931;SDS011;68331;53.362;55.932;2024-02-16T07:40:43;135.05;;;54.20;;
78931;SDS011;68331;53.362;55.932;2024-02-16T07:43:11;90.70;;;40.15;;
78931;SDS011;68331;53.362;55.932;2024-02-16T07:45:37;95.25;;;40.92;;
78931;SDS011;68331;53.362;55.932;2024-02-16T07:48:03;89.55;;;41.60;;
78931;SDS011;68331;53.362;55.932;2024-02-16T07:50:31;88.25;;;35.88;;
78931;SDS011;68331;53.362;55.932;2024-02-16T07:52:57;136.25;;;52.63;;
78931;SDS011;68331;53.362;55.932;2024-02-16T07:55:23;137.30;;;50.28;;
78931;SDS011;68331;53.362;55.932;2024-02-16T07:57:50;123.22;;;49.78;;
78931;SDS011;68331;53.362;55.932;2024-02-16T08:00:17;126.63;;;47.58;;
78931;SDS011;68331;53.362;55.932;2024-02-16T08:02:43;92.63;;;35.67;;
78931;SDS011;68331;53.362;55.932;2024-02-16T08:05:10;97.18;;;37.42;;
78931;SDS011;68331;53.362;55.932;2024-02-16T08:07:38;116.53;;;41.20;;
78931;SDS011;68331;53.362;55.932;2024-02-16T08:10:09;107.60;;;43.30;;
78931;SDS011;68331;53.362;55.932;2024-02-16T08:12:36;153.50;;;50.38;;
78931;SDS011;68331;53.362;55.932;2024-02-16T08:15:05;144.85;;;54.60;;
78931;SDS011;68331;53.362;55.932;2024-02-16T08:17:33;134.43;;;52.67;;
78931;SDS011;68331;53.362;55.932;2024-02-16T08:19:59;138.93;;;48.92;;
78931;SDS011;68331;53.362;55.932;2024-02-16T08:22:25;122.05;;;48.35;;
78931;SDS011;68331;53.362;55.932;2024-02-16T08:24:51;98.90;;;42.80;;
78931;SDS011;68331;53.362;55.932;2024-02-16T08:27:17;104.78;;;43.78;;
78931;SDS011;68331;53.362;55.932;2024-02-16T08:29:43;128.23;;;47.92;;
78931;SDS011;68331;53.362;55.932;2024-02-16T08:32:10;139.63;;;54.38;;
78931;SDS011;68331;53.362;55.932;2024-02-16T08:34:36;83.35;;;35.63;;
78931;SDS011;68331;53.362;55.932;2024-02-16T08:37:03;120.85;;;48.33;;
78931;SDS011;68331;53.362;55.932;2024-02-16T08:39:30;115.90;;;48.80;;
78931;SDS011;68331;53.362;55.932;2024-02-16T08:41:57;121.95;;;48.65;;
78931;SDS011;68331;53.362;55.932;2024-02-16T08:44:24;143.35;;;51.88;;
78931;SDS011;68331;53.362;55.932;2024-02-16T08:46:50;110.07;;;46.53;;
78931;SDS011;68331;53.362;55.932;2024-02-16T08:49:16;108.10;;;46.63;;
78931;SDS011;68331;53.362;55.932;2024-02-16T08:51:43;131.15;;;49.85;;
78931;SDS011;68331;53.362;55.932;2024-02-16T08:54:09;80.45;;;36.67;;
78931;SDS011;68331;53.362;55.932;2024-02-16T08:56:35;116.60;;;49.13;;
78931;SDS011;68331;53.362;55.932;2024-02-16T08:59:01;107.70;;;46.72;;
78931;SDS011;68331;53.362;55.932;2024-02-16T09:01:31;93.97;;;37.97;;
78931;SDS011;68331;53.362;55.932;2024-02-16T09:03:58;104.45;;;42.15;;
78931;SDS011;68331;53.362;55.932;2024-02-16T09:06:24;98.78;;;46.20;;
78931;SDS011;68331;53.362;55.932;2024-02-16T09:08:50;95.18;;;43.13;;
78931;SDS011;68331;53.362;55.932;2024-02-16T09:11:16;118.65;;;49.40;;
78931;SDS011;68331;53.362;55.932;2024-02-16T09:13:42;129.10;;;48.60;;
78931;SDS011;68331;53.362;55.932;2024-02-16T09:16:08;125.03;;;53.30;;
78931;SDS011;68331;53.362;55.932;2024-02-16T09:18:34;127.97;;;51.97;;
78931;SDS011;68331;53.362;55.932;2024-02-16T09:21:02;133.43;;;58.47;;
78931;SDS011;68331;53.362;55.932;2024-02-16T09:23:29;132.93;;;55.60;;
78931;SDS011;68331;53.362;55.932;2024-02-16T09:25:55;125.85;;;51.78;;
78931;SDS011;68331;53.362;55.932;2024-02-16T09:28:21;132.50;;;54.45;;
78931;SDS011;68331;53.362;55.932;2024-02-16T09:30:47;138.70;;;55.95;;
78931;SDS011;68331;53.362;55.932;2024-02-16T09:33:13;86.43;;;38.55;;
78931;SDS011;68331;53.362;55.932;2024-02-16T09:35:42;96.78;;;44.10;;
78931;SDS011;68331;53.362;55.932;2024-02-16T09:38:08;105.13;;;43.60;;
78931;SDS011;68331;53.362;55.932;2024-02-16T09:40:36;100.32;;;45.70;;
78931;SDS011;68331;53.362;55.932;2024-02-16T09:43:03;103.43;;;43.72;;
78931;SDS011;68331;53.362;55.932;2024-02-16T09:45:29;99.45;;;43.67;;
78931;SDS011;68331;53.362;55.932;2024-02-16T09:47:57;107.25;;;43.25;;
78931;SDS011;68331;53.362;55.932;2024-02-16T09:50:23;91.47;;;39.72;;
78931;SDS011;68331;53.362;55.932;2024-02-16T09:52:50;92.53;;;38.70;;
78931;SDS011;68331;53.362;55.932;2024-02-16T09:55:16;78.22;;;36.60;;
78931;SDS011;68331;53.362;55.932;2024-02-16T09:57:43;81.38;;;35.00;;
78931;SDS011;68331;53.362;55.932;2024-02-16T10:00:09;74.93;;;36.03;;
78931;SDS011;68331;53.362;55.932;2024-02-16T10:02:39;89.32;;;38.95;;
78931;SDS011;68331;53.362;55.932;2024-02-16T10:07:38;67.40;;;32.97;;
78931;SDS011;68331;53.362;55.932;2024-02-16T10:10:04;83.22;;;36.38;;
78931;SDS011;68331;53.362;55.932;2024-02-16T10:12:30;80.68;;;37.80;;
78931;SDS011;68331;53.362;55.932;2024-02-16T10:14:56;73.65;;;34.28;;
78931;SDS011;68331;53.362;55.932;2024-02-16T10:17:23;77.78;;;37.47;;
78931;SDS011;68331;53.362;55.932;2024-02-16T10:19:59;71.80;;;34.67;;
78931;SDS011;68331;53.362;55.932;2024-02-16T10:22:28;67.30;;;33.00;;
78931;SDS011;68331;53.362;55.932;2024-02-16T10:24:54;61.30;;;31.10;;
78931;SDS011;68331;53.362;55.932;2024-02-16T10:27:19;66.28;;;30.65;;
78931;SDS011;68331;53.362;55.932;2024-02-16T10:29:49;54.58;;;28.17;;
78931;SDS011;68331;53.362;55.932;2024-02-16T10:32:19;49.78;;;25.13;;
78931;SDS011;68331;53.362;55.932;2024-02-16T10:34:46;58.50;;;29.48;;
78931;SDS011;68331;53.362;55.932;2024-02-16T10:37:15;55.83;;;26.88;;
78931;SDS011;68331;53.362;55.932;2024-02-16T10:39:42;50.47;;;27.67;;
78931;SDS011;68331;53.362;55.932;2024-02-16T10:42:10;66.90;;;28.58;;
78931;SDS011;68331;53.362;55.932;2024-02-16T10:44:38;60.70;;;28.17;;
78931;SDS011;68331;53.362;55.932;2024-02-16T10:47:07;51.08;;;27.02;;
78931;SDS011;68331;53.362;55.932;2024-02-16T10:49:34;55.45;;;25.88;;
78931;SDS011;68331;53.362;55.932;2024-02-16T10:52:00;55.00;;;24.48;;
78931;SDS011;68331;53.362;55.932;2024-02-16T10:54:30;78.10;;;38.58;;
78931;SDS011;68331;53.362;55.932;2024-02-16T10:56:59;100.18;;;41.40;;
78931;SDS011;68331;53.362;55.932;2024-02-16T10:59:25;93.72;;;42.60;;
78931;SDS011;68331;53.362;55.932;2024-02-16T11:02:02;92.40;;;39.58;;
78931;SDS011;68331;53.362;55.932;2024-02-16T11:04:36;84.00;;;34.17;;
78931;SDS011;68331;53.362;55.932;2024-02-16T11:07:15;100.18;;;40.75;;
78931;SDS011;68331;53.362;55.932;2024-02-16T11:09:42;81.10;;;38.42;;
78931;SDS011;68331;53.362;55.932;2024-02-16T11:12:11;101.68;;;38.45;;
78931;SDS011;68331;53.362;55.932;2024-02-16T11:14:39;83.15;;;34.08;;
78931;SDS011;68331;53.362;55.932;2024-02-16T11:17:12;55.92;;;24.25;;
78931;SDS011;68331;53.362;55.932;2024-02-16T11:19:40;79.07;;;29.42;;
78931;SDS011;68331;53.362;55.932;2024-02-16T11:22:09;72.45;;;28.85;;
78931;SDS011;68331;53.362;55.932;2024-02-16T11:24:38;64.82;;;32.30;;
78931;SDS011;68331;53.362;55.932;2024-02-16T11:27:11;62.60;;;28.48;;
78931;SDS011;68331;53.362;55.932;2024-02-16T11:29:38;73.40;;;31.33;;
78931;SDS011;68331;53.362;55.932;2024-02-16T11:32:05;69.80;;;30.08;;
78931;SDS011;68331;53.362;55.932;2024-02-16T11:34:32;66.43;;;27.98;;
78931;SDS011;68331;53.362;55.932;2024-02-16T11:36:59;52.88;;;26.77;;
78931;SDS011;68331;53.362;55.932;2024-02-16T11:39:26;60.13;;;29.17;;
78931;SDS011;68331;53.362;55.932;2024-02-16T11:42:02;68.47;;;32.72;;
78931;SDS011;68331;53.362;55.932;2024-02-16T11:44:32;60.05;;;31.17;;
78931;SDS011;68331;53.362;55.932;2024-02-16T11:47:03;74.35;;;31.80;;
78931;SDS011;68331;53.362;55.932;2024-02-16T11:49:30;69.00;;;34.42;;
78931;SDS011;68331;53.362;55.932;2024-02-16T11:51:56;81.05;;;38.60;;
78931;SDS011;68331;53.362;55.932;2024-02-16T11:54:24;72.93;;;34.10;;
78931;SDS011;68331;53.362;55.932;2024-02-16T11:56:51;71.07;;;33.65;;
78931;SDS011;68331;53.362;55.932;2024-02-16T11:59:21;90.63;;;40.05;;
78931;SDS011;68331;53.362;55.932;2024-02-16T12:01:51;84.30;;;38.33;;
78931;SDS011;68331;53.362;55.932;2024-02-16T12:04:22;110.50;;;41.35;;
78931;SDS011;68331;53.362;55.932;2024-02-16T12:06:52;106.88;;;44.90;;
78931;SDS011;68331;53.362;55.932;2024-02-16T12:09:22;120.07;;;48.92;;
78931;SDS011;68331;53.362;55.932;2024-02-16T12:11:48;118.93;;;50.78;;
78931;SDS011;68331;53.362;55.932;2024-02-16T12:14:15;115.13;;;49.97;;
78931;SDS011;68331;53.362;55.932;2024-02-16T12:16:46;146.68;;;57.92;;
78931;SDS011;68331;53.362;55.932;2024-02-16T12:19:13;126.65;;;51.50;;
78931;SDS011;68331;53.362;55.932;2024-02-16T12:21:39;119.07;;;50.33;;
78931;SDS011;68331;53.362;55.932;2024-02-16T12:24:06;118.70;;;50.92;;
78931;SDS011;68331;53.362;55.932;2024-02-16T12:26:31;118.93;;;48.75;;
78931;SDS011;68331;53.362;55.932;2024-02-16T12:28:57;124.68;;;50.25;;
78931;SDS011;68331;53.362;55.932;2024-02-16T12:31:23;121.70;;;45.40;;
78931;SDS011;68331;53.362;55.932;2024-02-16T12:33:51;101.00;;;44.38;;
78931;SDS011;68331;53.362;55.932;2024-02-16T12:36:17;117.88;;;45.17;;
78931;SDS011;68331;53.362;55.932;2024-02-16T12:38:43;98.75;;;44.08;;
78931;SDS011;68331;53.362;55.932;2024-02-16T12:41:10;102.85;;;40.38;;
78931;SDS011;68331;53.362;55.932;2024-02-16T12:43:36;81.00;;;40.83;;
78931;SDS011;68331;53.362;55.932;2024-02-16T12:46:01;103.10;;;42.67;;
78931;SDS011;68331;53.362;55.932;2024-02-16T12:48:29;99.13;;;41.80;;
78931;SDS011;68331;53.362;55.932;2024-02-16T12:50:55;104.97;;;42.00;;
78931;SDS011;68331;53.362;55.932;2024-02-16T12:53:22;89.35;;;38.35;;
78931;SDS011;68331;53.362;55.932;2024-02-16T12:55:50;79.20;;;37.38;;
78931;SDS011;68331;53.362;55.932;2024-02-16T12:58:16;92.65;;;39.65;;
78931;SDS011;68331;53.362;55.932;2024-02-16T13:00:42;79.70;;;34.95;;
78931;SDS011;68331;53.362;55.932;2024-02-16T13:03:08;77.68;;;34.63;;
78931;SDS011;68331;53.362;55.932;2024-02-16T13:05:33;81.70;;;34.67;;
78931;SDS011;68331;53.362;55.932;2024-02-16T13:08:00;75.32;;;37.00;;
78931;SDS011;68331;53.362;55.932;2024-02-16T13:10:25;72.90;;;34.83;;
78931;SDS011;68331;53.362;55.932;2024-02-16T13:12:51;77.15;;;36.38;;
78931;SDS011;68331;53.362;55.932;2024-02-16T13:15:17;93.65;;;37.30;;
78931;SDS011;68331;53.362;55.932;2024-02-16T13:17:43;65.95;;;35.78;;
78931;SDS011;68331;53.362;55.932;2024-02-16T13:20:09;73.65;;;35.15;;
78931;SDS011;68331;53.362;55.932;2024-02-16T13:22:38;72.00;;;34.42;;
78931;SDS011;68331;53.362;55.932;2024-02-16T13:25:04;79.22;;;36.53;;
78931;SDS011;68331;53.362;55.932;2024-02-16T13:27:31;102.53;;;41.28;;
78931;SDS011;68331;53.362;55.932;2024-02-16T13:29:58;93.22;;;38.20;;
78931;SDS011;68331;53.362;55.932;2024-02-16T13:32:24;73.45;;;38.35;;
78931;SDS011;68331;53.362;55.932;2024-02-16T13:34:50;79.65;;;36.38;;
78931;SDS011;68331;53.362;55.932;2024-02-16T13:37:16;71.93;;;35.13;;
78931;SDS011;68331;53.362;55.932;2024-02-16T13:39:42;75.05;;;33.38;;
78931;SDS011;68331;53.362;55.932;2024-02-16T13:42:08;79.32;;;35.65;;
78931;SDS011;68331;53.362;55.932;2024-02-16T13:44:34;64.53;;;32.45;;
78931;SDS011;68331;53.362;55.932;2024-02-16T13:47:00;77.20;;;34.20;;
78931;SDS011;68331;53.362;55.932;2024-02-16T13:49:26;83.78;;;34.13;;
78931;SDS011;68331;53.362;55.932;2024-02-16T13:51:52;88.43;;;37.70;;
78931;SDS011;68331;53.362;55.932;2024-02-16T13:54:19;62.83;;;30.52;;
78931;SDS011;68331;53.362;55.932;2024-02-16T13:56:46;59.20;;;31.08;;
78931;SDS011;68331;53.362;55.932;2024-02-16T13:59:12;70.25;;;31.83;;
78931;SDS011;68331;53.362;55.932;2024-02-16T14:01:38;71.97;;;33.70;;
78931;SDS011;68331;53.362;55.932;2024-02-16T14:04:04;65.75;;;30.85;;
78931;SDS011;68331;53.362;55.932;2024-02-16T14:06:30;65.82;;;28.63;;
78931;SDS011;68331;53.362;55.932;2024-02-16T14:08:56;51.83;;;30.55;;
78931;SDS011;68331;53.362;55.932;2024-02-16T14:11:22;66.35;;;30.17;;
78931;SDS011;68331;53.362;55.932;2024-02-16T14:13:48;68.97;;;29.67;;
78931;SDS011;68331;53.362;55.932;2024-02-16T14:16:15;60.88;;;32.75;;